• Join FlightAware (Why Join?)
  • Login
  • US Flag 
Rudolph Flight #1: Arrived! 
08:24AM EST


 

Airport Tracker/Info


-or-


 

Live Flight TrackerFlight Track Log ✈ AWE79 ✈ 24-Jun-2013 ✈ KPHX - KSEA

Flight Track Log - Related Links

Times and Time Zones

All times are in EDT time to prevent confusion due to time zone crossing. See the AWE79 flight status page for this flight to view local times or setup timezone preferences in your user account.

Time Position Orientation Groundspeed Altitude Reporting Facility
EDT Latitude Longitude Course Direction KTS MPH feet Rate Location/Type
10:43AM 33.4333 -111.9833 20° North 170 196 2,200  Level Phoenix TRACON
10:44AM 33.4333 -111.9500 90° East 179 206 2,800 1,560 Climbing Phoenix TRACON
10:45AM 33.4333 -111.8667 90° East 232 267 4,800 1,980 Climbing Phoenix TRACON
10:46AM 33.8702 -111.8121 20° North  Level FlightAware Approximate
10:46AM 33.4917 -111.7933 46° Northeast 261 300 7,300  Level Albuquerque Center
10:47AM 33.9796 -111.7642 20° North  Level FlightAware Approximate
10:47AM 33.5611 -111.7433 31° Northeast 299 344 8,900  Level Albuquerque Center
10:48AM 34.0890 -111.7164 20° North  Level FlightAware Approximate
10:48AM 33.6417 -111.7011 24° Northeast 320 368 10,600  Level Albuquerque Center
10:49AM 33.7442 -111.7089 356° North 372 428 11,800 1,500 Climbing Albuquerque Center
10:50AM 33.8536 -111.7156 357° North 392 451 13,800 2,040 Climbing Albuquerque Center
10:51AM 33.9839 -111.7242 357° North 404 465 16,100 1,920 Climbing Albuquerque Center
10:52AM 34.0917 -111.7372 354° North 404 465 17,800 1,740 Climbing Albuquerque Center
10:53AM 34.2261 -111.7650 350° North 413 475 19,700 1,680 Climbing Albuquerque Center
10:54AM 34.3408 -111.7911 349° North 419 482 21,300 1,380 Climbing Albuquerque Center
10:55AM 34.4564 -111.8161 350° North 421 484 22,600 1,200 Climbing Albuquerque Center
10:56AM 34.5736 -111.8411 350° North 426 490 23,800 1,200 Climbing Albuquerque Center
10:57AM 34.6919 -111.8667 350° North 430 495 25,100 1,140 Climbing Albuquerque Center
10:58AM 34.8250 -111.8958 350° North 435 501 26,200 900 Climbing Albuquerque Center
10:59AM 34.9461 -111.9225 350° North 442 509 27,000 720 Climbing Albuquerque Center
11:00AM 35.0675 -111.9486 350° North 445 512 27,700 480 Climbing Albuquerque Center
11:01AM 35.1900 -111.9750 350° North 450 518 28,000 120 Climbing Albuquerque Center
11:02AM 35.3381 -112.0083 350° North 453 521 28,000  Level Albuquerque Center
11:03AM 35.4617 -112.0350 350° North 455 524 28,000 240 Level Albuquerque Center
11:04AM 35.5861 -112.0617 350° North 457 526 28,600 720 Climbing Albuquerque Center
11:05AM 35.7106 -112.0883 350° North 458 527 29,500 900 Climbing Albuquerque Center
11:06AM 35.8342 -112.1136 351° North 456 525 30,500 1,200 Climbing Albuquerque Center
11:07AM 35.9825 -112.1444 350° North 454 522 32,000 1,080 Climbing Albuquerque Center
11:09AM 36.0997 -112.1750 348° North 444 511 32,800 720 Climbing Albuquerque Center
11:10AM 36.2239 -112.2392 337° Northwest 427 491 33,700 540 Climbing Los Angeles Center
11:11AM 36.3336 -112.2947 338° Northwest 427 491 34,000 120 Climbing Los Angeles Center
11:12AM 36.4656 -112.3636 337° Northwest 428 493 34,000  Level Los Angeles Center
11:13AM 36.5744 -112.4211 337° Northwest 427 491 34,000  Level Los Angeles Center
11:14AM 36.6842 -112.4786 337° Northwest 426 490 34,000  Level Los Angeles Center
11:15AM 36.7711 -112.5236 337° Northwest 424 488 34,000  Level Los Angeles Center
11:16AM 36.9028 -112.5925 337° Northwest 428 493 34,000  Level Los Angeles Center
11:17AM 37.0122 -112.6514 337° Northwest 427 491 34,000  Level Los Angeles Center
11:18AM 37.1450 -112.7208 337° Northwest 429 494 34,000  Level Los Angeles Center
11:19AM 37.2550 -112.7803 337° Northwest 430 495 34,000  Level Los Angeles Center
11:20AM 37.3636 -112.8394 337° Northwest 426 490 34,000  Level Los Angeles Center
11:21AM 37.4753 -112.8997 337° Northwest 429 494 34,000  Level Los Angeles Center
11:22AM 37.5800 -112.9828 328° Northwest 432 497 34,000  Level Los Angeles Center
11:23AM 37.6792 -113.0717 325° Northwest 429 494 34,000  Level Los Angeles Center
11:24AM 37.7964 -113.1742 325° Northwest 427 491 34,000  Level Los Angeles Center
11:26AM 37.9119 -113.2775 325° Northwest 427 491 34,000  Level Salt Lake Center
11:27AM 38.0075 -113.3644 324° Northwest 424 488 34,000  Level Salt Lake Center
11:28AM 38.1044 -113.4506 325° Northwest 424 488 34,000  Level Salt Lake Center
11:29AM 38.2017 -113.5361 325° Northwest 426 490 34,000  Level Salt Lake Center
11:30AM 38.2975 -113.6242 324° Northwest 423 487 34,000  Level Salt Lake Center
11:31AM 38.4136 -113.7286 325° Northwest 426 490 34,000  Level Salt Lake Center
11:32AM 38.5094 -113.8164 324° Northwest 426 490 34,000  Level Salt Lake Center
11:33AM 38.6047 -113.9033 325° Northwest 423 487 34,000  Level Salt Lake Center
11:34AM 38.7008 -113.9906 325° Northwest 423 487 34,000  Level Salt Lake Center
11:35AM 38.7961 -114.0792 324° Northwest 424 488 34,100 360 Climbing Salt Lake Center
11:36AM 38.8922 -114.1675 324° Northwest 425 489 34,800 540 Climbing Salt Lake Center
11:37AM 39.0053 -114.2731 324° Northwest 421 484 35,300 540 Climbing Salt Lake Center
11:38AM 39.1008 -114.3600 325° Northwest 422 486 36,000 300 Climbing Salt Lake Center
11:39AM 39.1939 -114.4511 323° Northwest 419 482 36,000  Level Salt Lake Center
11:40AM 39.3000 -114.5503 324° Northwest 421 484 36,000  Level Salt Lake Center
11:41AM 39.4042 -114.6181 333° Northwest 431 496 36,000  Level Salt Lake Center
11:42AM 39.5094 -114.6811 335° Northwest 437 503 36,000  Level Salt Lake Center
11:43AM 39.6319 -114.7586 334° Northwest 438 504 36,000  Level Salt Lake Center
11:44AM 39.7361 -114.8244 334° Northwest 436 502 36,000  Level Salt Lake Center
11:45AM 39.8553 -114.9036 333° Northwest 433 498 36,000  Level Salt Lake Center
11:46AM 39.9597 -114.9717 333° Northwest 437 503 36,000  Level Salt Lake Center
11:47AM 40.0811 -115.0506 334° Northwest 437 503 36,000  Level Salt Lake Center
11:48AM 40.1856 -115.1189 333° Northwest 439 505 36,000  Level Salt Lake Center
11:49AM 40.3092 -115.2000 333° Northwest 443 510 36,000  Level Salt Lake Center
11:50AM 40.4153 -115.2689 334° Northwest 444 511 36,000  Level Salt Lake Center
11:51AM 40.5339 -115.3500 333° Northwest 435 501 36,000  Level Salt Lake Center
11:52AM 40.6403 -115.4200 333° Northwest 443 510 36,000  Level Salt Lake Center
11:53AM 40.7636 -115.5014 333° Northwest 445 512 36,000  Level Salt Lake Center
11:54AM 40.8681 -115.5719 333° Northwest 442 509 36,000  Level Salt Lake Center
11:55AM 40.9928 -115.6539 334° Northwest 448 516 36,000  Level Salt Lake Center
11:57AM 41.1000 -115.7258 333° Northwest 450 518 36,000  Level Salt Lake Center
11:58AM 41.2244 -115.8100 333° Northwest 451 519 36,000  Level Salt Lake Center
11:59AM 41.3303 -115.8817 333° Northwest 448 516 36,000  Level Salt Lake Center
12:00PM 41.4567 -115.9681 333° Northwest 453 521 36,000  Level Salt Lake Center
12:01PM 41.5653 -116.0419 333° Northwest 458 527 36,000  Level Salt Lake Center
12:02PM 41.6936 -116.1217 335° Northwest 458 527 36,000  Level Salt Lake Center
12:03PM 41.8033 -116.1969 333° Northwest 462 532 36,000  Level Salt Lake Center
12:04PM 41.9114 -116.2669 334° Northwest 454 522 36,000  Level Salt Lake Center
12:05PM 42.0433 -116.3542 334° Northwest 454 522 36,000  Level Salt Lake Center
12:06PM 42.1458 -116.4225 334° Northwest 452 520 36,000  Level Salt Lake Center
12:07PM 42.2733 -116.5067 334° Northwest 456 525 36,000  Level Salt Lake Center
12:08PM 42.3825 -116.5794 334° Northwest 456 525 36,000  Level Salt Lake Center
12:09PM 42.5081 -116.6694 332° Northwest 456 525 36,000  Level Salt Lake Center
12:10PM 42.6111 -116.7581 328° Northwest 457 526 36,000  Level Salt Lake Center
12:11PM 42.7308 -116.8614 328° Northwest 456 525 36,000  Level Salt Lake Center
12:12PM 42.8347 -116.9514 328° Northwest 461 531 36,000  Level Salt Lake Center
12:13PM 42.9553 -117.0561 328° Northwest 460 529 36,000  Level Salt Lake Center
12:14PM 43.0592 -117.1481 327° Northwest 463 533 36,000  Level Salt Lake Center
12:15PM 43.1808 -117.2542 328° Northwest 464 534 36,000  Level Salt Lake Center
12:16PM 43.2853 -117.3458 327° Northwest 466 536 36,000  Level Salt Lake Center
12:17PM 43.3889 -117.4369 327° Northwest 460 529 36,000  Level Salt Lake Center
12:18PM 43.5117 -117.5456 327° Northwest 468 539 36,000  Level Salt Lake Center
12:19PM 43.6150 -117.6394 327° Northwest 464 534 36,000  Level Salt Lake Center
12:20PM 43.7386 -117.7475 328° Northwest 469 540 36,000  Level Salt Lake Center
12:21PM 43.8447 -117.8428 327° Northwest 471 542 36,000  Level Salt Lake Center
12:22PM 43.9681 -117.9550 327° Northwest 473 544 36,000  Level Salt Lake Center
12:23PM 44.0733 -118.0511 327° Northwest 470 541 36,000  Level Salt Lake Center
12:24PM 44.1458 -118.1147 328° Northwest 475 547 36,000  Level Seattle Center
12:25PM 44.2519 -118.2133 326° Northwest 469 540 36,000  Level Seattle Center
12:26PM 44.3594 -118.3133 326° Northwest 467 537 36,000  Level Seattle Center
12:27PM 44.4708 -118.4131 327° Northwest 473 544 36,000  Level Seattle Center
12:28PM 44.5786 -118.5133 326° Northwest 469 540 36,000  Level Seattle Center
12:29PM 44.6867 -118.6139 327° Northwest 468 539 36,000  Level Seattle Center
12:30PM 44.8164 -118.7347 327° Northwest 468 539 36,000  Level Seattle Center
12:31PM 44.9244 -118.8375 326° Northwest 471 542 36,000  Level Seattle Center
12:32PM 45.0331 -118.9397 326° Northwest 472 543 36,000  Level Seattle Center
12:33PM 45.1433 -119.0436 326° Northwest 477 549 36,000  Level Seattle Center
12:34PM 45.2497 -119.1450 326° Northwest 468 539 36,000  Level Seattle Center
12:35PM 45.3522 -119.2450 326° Northwest 455 524 36,000 -300 Level Seattle Center
12:36PM 45.4567 -119.3436 326° Northwest 455 524 35,400 -540 Descending Seattle Center
12:37PM 45.5833 -119.3819 348° North 476 548 35,000 -240 Descending Seattle Center
12:38PM 45.7133 -119.4047 353° North 474 545 35,000  Level Seattle Center
12:39PM 45.8669 -119.4297 354° North 467 537 35,000  Level Seattle Center
12:40PM 45.9981 -119.4500 354° North 472 543 35,000  Level Seattle Center
12:41PM 46.1294 -119.4722 353° North 475 547 35,000  Level Seattle Center
12:42PM 46.2594 -119.4933 354° North 474 545 35,000 -120 Level Seattle Center
12:43PM 46.3722 -119.5803 332° Northwest 474 545 34,800 -600 Descending Seattle Center
12:44PM 46.4258 -119.7339 297° West 442 509 33,900 -900 Descending Seattle Center
12:45PM 46.4581 -119.8931 286° West 420 483 33,000 -960 Descending Seattle Center
12:46PM 46.4919 -120.0603 286° West 431 496 32,000 -1,020 Descending Seattle Center
12:47PM 46.5250 -120.2253 286° West 428 493 31,000 -1,620 Descending Seattle Center
12:48PM 46.5600 -120.3942 287° West 436 502 28,800 -2,160 Descending Seattle Center
12:49PM 46.6333 -120.5819 300° West 446 513 26,700 -1,680 Descending Seattle Center
12:50PM 46.7025 -120.7275 305° West 440 506 25,400 -1,380 Descending Seattle Center
12:52PM 46.7719 -120.8719 305° West 437 503 24,000 -1,380 Descending Seattle Center
12:53PM 46.8389 -121.0158 304° West 430 495 22,700 -1,320 Descending Seattle Center
12:54PM 46.9044 -121.1544 305° West 420 483 21,400 -1,320 Descending Seattle Center
12:55PM 46.9692 -121.2892 305° West 410 472 20,100 -1,380 Descending Seattle Center
12:55PM 47.0267 -121.4133 304° West 403 464 18,900 -1,320 Descending Seattle Center
12:56PM 47.0636 -121.4939 304° West 392 451 18,200 -1,380 Descending Seattle Center
12:57PM 47.0981 -121.5697 304° West 376 433 17,300 -1,260 Descending Seattle Center
12:58PM 47.1542 -121.6919 304° West 363 418 16,200 -1,140 Descending Seattle Center
12:59PM 47.2103 -121.8133 304° West 356 410 15,100 -1,140 Descending Seattle Center
01:00PM 47.2661 -121.9342 304° West 359 413 13,900 -960 Descending Seattle Center
01:01PM 47.3197 -122.0528 304° West 348 400 13,200 -600 Descending Seattle Center
01:02PM 47.3700 -122.1625 304° West 297 342 12,700 -840 Descending Seattle Center
01:03PM 47.4414 -122.1900 345° North 274 315 11,600 -1,500 Descending Seattle Center
01:04PM 47.5378 -122.1978 357° North 265 305 9,300 -1,980 Descending Seattle Center
01:05PM 47.5936 -122.2011 358° North 267 307 7,600 -2,040 Descending Seattle Center
01:06PM 47.6653 -122.2033 359° North 259 298 5,900 -1,260 Descending Seattle Center
01:07PM 47.7167 -122.2453 331° Northwest 232 267 5,100 -900 Descending Seattle Center
01:08PM 47.6856 -122.2978 229° Southwest 186 214 4,100 -660 Descending Seattle Center
01:09PM 47.6383 -122.3175 196° South 171 197 3,800 -300 Descending Seattle Center